Adrian, MI (49221)

12:19 PM EDT on September 05, 2015 (GMT -0400)
AdrianWeather.com | | Change Station
CLOSE
Current Station
Personal Weather Station
Location: Adrian, MI
Elevation: 823 ft
Nearby Weather Stations

Elev 823 ft 41.91 °N, 84.08 °W | Updated 22 minutes ago

Overcast
Overcast
74.0 °F
Feels Like 75 °F
N
3.0
Wind Variable Wind from West
Gusts 3.0 mph

Today
High -- | Low -- °F
--% Chance of Precip.
Yesterday
High -- | Low -- °F
Precip. -- in
7:05 AM 8:03 PM
Waning Gibbous, 47% visible
Pressure 30.18 in
Visibility 10.0 miles
Clouds Mostly Cloudy 4300 ft
Mostly Cloudy 5000 ft
Overcast 6000 ft
Heat Index 75 °F
Dew Point 66 °F
Humidity 76%
Rainfall 0.00 in
Snow Depth Not available.
UV 2 out of 12
Pollen 9.50 out of 12
Air Quality Not available.
Flu Activity Not available.
METAR KADG 051553Z AUTO 20010KT 10SM BKN043 BKN050 OVC060 24/19 A3019 RMK AO2 SLP219 T02390189
Pressure 30.18 in
Visibility 10.0 miles
Clouds Mostly Cloudy 4300 ft
Mostly Cloudy 5000 ft
Overcast 6000 ft
Heat Index 75 °F
Dew Point 66 °F
Humidity 76%
Rainfall 0.00 in
Snow Depth Not available.
UV 2 out of 12
Pollen 9.50 out of 12
Air Quality Not available.
Flu Activity Not available.
METAR KADG 051553Z AUTO 20010KT 10SM BKN043 BKN050 OVC060 24/19 A3019 RMK AO2 SLP219 T02390189

10-Day Weather Forecast

×

Almanac

Astronomy

Sep. 05, 2015 Rise Set
Actual Time
Civil Twilight
Nautical Twilight
Astronomical Twilight
Moon
Length of Visible Light
Length of Day
Tomorrow will be .
, % of the Moon is Illuminated

Today's Extremes

State Highs State Lows

Community

WunderPhotos

Upload Photos

1,852,495 photos uploaded!

WunderBlogs® & News

Nearby

Air Quality

  Air Quality AQ Index Pollutant
Not available.

Snow Depth

Station Depth Elevation

Earthquake Activity

City Distance Mag. Time & Date
Minimum magnitude displayed is 2.5.

Coastal Water Temperatures

Place Temperature

Stations

Nearby Weather Stations

Station Location Temp. Windchill Dew Point Humidity Wind Precip. Elev Updated Type